Time;durP1;ratioP1;P1;durP2;ratioP2;P2;SDS_P1;SDS_P2;PMS_P1;PMS_P2;Temp;Humidity;BMP_temperature;BMP_pressure;BME280_temperature;BME280_humidity;BME280_pressure;Samples;Min_cycle;Max_cycle;Signal;HPM_P1;HPM_P2
2021/12/17 00:00:18;;;;;;;;;;;;;;;;;;4858942;29;20304;-83
2021/12/17 00:05:44;;;;;;;;;;;;;;;;;;4859322;29;19912;-83
2021/12/17 00:08:10;;;;;;;;;;;;;;;;;;4858961;29;19939;-82
2021/12/17 00:10:36;;;;;;;;;;;;;;;;;;4859227;29;19911;-82
2021/12/17 00:13:02;;;;;;;;;;;;;;;;;;4859532;29;19904;-82
2021/12/17 00:15:27;;;;;;;;;;;;;;;;;;4860868;29;19908;-82
2021/12/17 00:18:00;;;;;;;;;;;;;;;;;;4861551;29;19943;-82
2021/12/17 00:52:56;;;;;;;;;;;;;;;;;;4860559;29;19908;-82
2021/12/17 00:55:22;;;;;;;;;;;;;;;;;;4860857;29;20336;-82
2021/12/17 00:57:47;;;;;;;;;;;;;;;;;;4860722;29;19920;-82
2021/12/17 01:00:13;;;;;;;;;;;;;;;;;;4860652;29;19915;-82
2021/12/17 01:02:39;;;;;;;;;;;;;;;;;;4860652;29;19930;-82
2021/12/17 01:05:05;;;;;;;;;;;;;;;;;;4860359;29;20345;-82
2021/12/17 01:07:31;;;;;;;;;;;;;;;;;;4860898;29;19916;-82
2021/12/17 01:09:57;;;;;;;;;;;;;;;;;;4874212;29;19914;-83
2021/12/17 01:12:23;;;;;;;;;;;;;;;;;;4860355;29;20262;-82
2021/12/17 01:14:49;;;;;;;;;;;;;;;;;;4860614;29;19908;-82
2021/12/17 01:17:15;;;;;;;;;;;;;;;;;;4860830;29;20386;-82
2021/12/17 01:36:22;;;;;;;;;;;;;;;;;;4803336;29;20289;-82
2021/12/17 01:44:16;;;;;;;;;;;;;;;;;;4767302;30;19910;-82
2021/12/17 01:46:41;;;;;;;;;;;;;;;;;;4767322;30;19916;-82
2021/12/17 01:59:51;;;;;;;;;;;;;;;;;;4767301;30;19914;-82
2021/12/17 02:02:17;;;;;;;;;;;;;;;;;;4767240;30;20378;-82
2021/12/17 02:04:43;;;;;;;;;;;;;;;;;;4760528;30;19960;-82
2021/12/17 02:07:09;;;;;;;;;;;;;;;;;;4749520;30;20380;-82
2021/12/17 02:10:12;;;;;;;;;;;;;;;;;;4752877;29;19913;-83
2021/12/17 02:12:38;;;;;;;;;;;;;;;;;;4802205;29;20012;-82
2021/12/17 02:28:53;;;;;;;;;;;;;;;;;;4802361;29;19965;-82
2021/12/17 02:33:47;;;;;;;;;;;;;;;;;;4834002;29;19912;-83
2021/12/17 02:36:17;;;;;;;;;;;;;;;;;;4873348;29;20380;-82
2021/12/17 02:38:43;;;;;;;;;;;;;;;;;;4859342;29;19908;-82
2021/12/17 02:46:38;;;;;;;;;;;;;;;;;;4859600;29;19916;-82
2021/12/17 02:49:04;;;;;;;;;;;;;;;;;;4873621;29;19908;-82
2021/12/17 02:51:30;;;;;;;;;;;;;;;;;;4861567;29;20300;-82
2021/12/17 02:53:56;;;;;;;;;;;;;;;;;;4863224;29;19949;-82
2021/12/17 02:56:22;;;;;;;;;;;;;;;;;;4862219;29;19920;-82
2021/12/17 02:58:47;;;;;;;;;;;;;;;;;;4862817;29;19910;-82
2021/12/17 03:01:13;;;;;;;;;;;;;;;;;;4862974;29;19908;-82
2021/12/17 03:03:39;;;;;;;;;;;;;;;;;;4863108;29;20376;-82
2021/12/17 03:06:05;;;;;;;;;;;;;;;;;;4862443;29;19935;-82
2021/12/17 03:08:31;;;;;;;;;;;;;;;;;;4862697;29;19915;-83
2021/12/17 03:10:58;;;;;;;;;;;;;;;;;;4862027;29;20368;-82
2021/12/17 03:13:25;;;;;;;;;;;;;;;;;;4862960;29;19923;-82
2021/12/17 03:16:03;;;;;;;;;;;;;;;;;;4862289;29;20257;-83
2021/12/17 03:19:01;;;;;;;;;;;;;;;;;;4861491;29;20356;-83
2021/12/17 03:24:00;;;;;;;;;;;;;;;;;;4861628;29;19930;-83
2021/12/17 03:26:26;;;;;;;;;;;;;;;;;;4862587;29;20435;-82
2021/12/17 03:28:52;;;;;;;;;;;;;;;;;;4862322;29;20002;-82
2021/12/17 03:31:25;;;;;;;;;;;;;;;;;;4862387;29;20285;-82
2021/12/17 03:33:51;;;;;;;;;;;;;;;;;;4862040;29;19908;-82
2021/12/17 03:36:17;;;;;;;;;;;;;;;;;;4861368;29;19912;-82
2021/12/17 03:38:43;;;;;;;;;;;;;;;;;;4861107;29;19961;-82
2021/12/17 03:41:25;;;;;;;;;;;;;;;;;;4862412;29;19915;-82
2021/12/17 03:43:52;;;;;;;;;;;;;;;;;;4861931;29;19912;-82
2021/12/17 03:46:17;;;;;;;;;;;;;;;;;;4876798;29;20277;-82
2021/12/17 03:48:43;;;;;;;;;;;;;;;;;;4875876;29;19910;-82
2021/12/17 03:51:15;;;;;;;;;;;;;;;;;;4861957;29;19912;-82
2021/12/17 03:53:40;;;;;;;;;;;;;;;;;;4861241;29;20376;-82
2021/12/17 03:56:06;;;;;;;;;;;;;;;;;;4861274;29;20012;-82
2021/12/17 03:58:32;;;;;;;;;;;;;;;;;;4862019;29;19912;-82
2021/12/17 04:00:58;;;;;;;;;;;;;;;;;;4862055;29;19995;-83
2021/12/17 04:03:24;;;;;;;;;;;;;;;;;;4860885;29;19908;-83
2021/12/17 04:05:50;;;;;;;;;;;;;;;;;;4861754;29;20388;-83
2021/12/17 04:08:16;;;;;;;;;;;;;;;;;;4860433;29;20004;-83
2021/12/17 04:10:46;;;;;;;;;;;;;;;;;;4860326;29;20011;-82
2021/12/17 04:13:35;;;;;;;;;;;;;;;;;;4861626;29;19915;-82
2021/12/17 04:16:05;;;;;;;;;;;;;;;;;;4861273;29;19918;-82
2021/12/17 04:18:31;;;;;;;;;;;;;;;;;;4875605;29;19908;-82
2021/12/17 04:20:59;;;;;;;;;;;;;;;;;;4861159;29;19919;-82
2021/12/17 04:23:24;;;;;;;;;;;;;;;;;;4861816;29;19915;-82
2021/12/17 04:25:50;;;;;;;;;;;;;;;;;;4860346;29;19912;-82
2021/12/17 04:28:16;;;;;;;;;;;;;;;;;;4861434;29;19908;-82
2021/12/17 04:30:42;;;;;;;;;;;;;;;;;;4860858;29;19908;-82
2021/12/17 04:33:08;;;;;;;;;;;;;;;;;;4859472;29;20376;-82
2021/12/17 04:35:34;;;;;;;;;;;;;;;;;;4861052;29;19916;-83
2021/12/17 04:38:03;;;;;;;;;;;;;;;;;;4860920;29;19962;-83
2021/12/17 04:40:29;;;;;;;;;;;;;;;;;;4860475;29;19952;-82
2021/12/17 04:45:22;;;;;;;;;;;;;;;;;;4860942;29;19915;-82
2021/12/17 04:58:51;;;;;;;;;;;;;;;;;;4858672;29;20011;-82
2021/12/17 05:01:17;;;;;;;;;;;;;;;;;;4858374;29;19912;-82
2021/12/17 05:03:43;;;;;;;;;;;;;;;;;;4858569;29;19964;-82
2021/12/17 05:06:09;;;;;;;;;;;;;;;;;;4858480;29;20358;-82
2021/12/17 05:08:35;;;;;;;;;;;;;;;;;;4858667;29;19904;-82
2021/12/17 05:19:13;;;;;;;;;;;;;;;;;;4858566;29;19972;-84
2021/12/17 05:21:39;;;;;;;;;;;;;;;;;;4843297;29;19958;-83
2021/12/17 05:24:05;;;;;;;;;;;;;;;;;;4857807;29;19959;-82
2021/12/17 05:26:31;;;;;;;;;;;;;;;;;;4858460;29;19998;-83
2021/12/17 05:28:57;;;;;;;;;;;;;;;;;;4858103;29;20436;-83
2021/12/17 05:31:23;;;;;;;;;;;;;;;;;;4858013;29;19912;-83
2021/12/17 05:33:49;;;;;;;;;;;;;;;;;;4855681;29;19915;-84
2021/12/17 05:36:15;;;;;;;;;;;;;;;;;;4860190;29;20486;-82
2021/12/17 05:38:41;;;;;;;;;;;;;;;;;;4873229;29;19916;-83
2021/12/17 05:41:07;;;;;;;;;;;;;;;;;;4873912;29;19972;-84
2021/12/17 05:43:37;;;;;;;;;;;;;;;;;;4860103;29;19994;-81
2021/12/17 05:46:23;;;;;;;;;;;;;;;;;;4859728;29;19908;-85
2021/12/17 05:48:49;;;;;;;;;;;;;;;;;;4859840;29;19967;-79
2021/12/17 05:51:15;;;;;;;;;;;;;;;;;;4858826;29;19947;-79
2021/12/17 05:53:40;;;;;;;;;;;;;;;;;;4847344;29;19983;-80
2021/12/17 05:56:06;;;;;;;;;;;;;;;;;;4859504;29;19916;-80
2021/12/17 05:58:32;;;;;;;;;;;;;;;;;;4871276;29;19908;-81
2021/12/17 06:00:58;;;;;;;;;;;;;;;;;;4862995;29;20357;-79
2021/12/17 06:03:24;;;;;;;;;;;;;;;;;;4858502;29;20298;-80
2021/12/17 06:05:50;;;;;;;;;;;;;;;;;;4859918;29;19912;-80
2021/12/17 06:08:16;;;;;;;;;;;;;;;;;;4860189;29;19918;-79
2021/12/17 06:10:42;;;;;;;;;;;;;;;;;;4858835;29;19934;-81
2021/12/17 06:13:08;;;;;;;;;;;;;;;;;;4859162;29;19918;-79
2021/12/17 06:15:33;;;;;;;;;;;;;;;;;;4860425;29;19943;-80
2021/12/17 06:17:59;;;;;;;;;;;;;;;;;;4859963;29;20019;-81
2021/12/17 06:20:25;;;;;;;;;;;;;;;;;;4859370;29;20324;-80
2021/12/17 06:22:52;;;;;;;;;;;;;;;;;;4865285;29;19912;-81
2021/12/17 06:25:18;;;;;;;;;;;;;;;;;;4861103;29;19908;-81
2021/12/17 06:27:44;;;;;;;;;;;;;;;;;;4861778;29;19916;-81
2021/12/17 06:30:10;;;;;;;;;;;;;;;;;;4863598;29;19908;-79
2021/12/17 06:32:36;;;;;;;;;;;;;;;;;;4863878;29;20384;-80
2021/12/17 06:35:02;;;;;;;;;;;;;;;;;;4864130;29;19904;-80
2021/12/17 06:37:28;;;;;;;;;;;;;;;;;;4862750;29;19935;-79
2021/12/17 06:39:54;;;;;;;;;;;;;;;;;;4863384;29;19937;-80
2021/12/17 06:42:20;;;;;;;;;;;;;;;;;;4863437;29;19939;-79
2021/12/17 06:44:47;;;;;;;;;;;;;;;;;;4863186;29;19998;-80
2021/12/17 07:10:51;;;;;;;;;;;;;;;;;;4862617;29;19916;-80
2021/12/17 07:21:54;;;;;;;;;;;;;;;;;;4862462;29;20464;-80
2021/12/17 07:40:32;;;;;;;;;;;;;;;;;;4861809;29;19957;-79
2021/12/17 07:43:01;;;;;;;;;;;;;;;;;;4862625;29;19911;-80
2021/12/17 07:45:27;;;;;;;;;;;;;;;;;;4861986;29;19999;-79
2021/12/17 07:47:53;;;;;;;;;;;;;;;;;;4862286;29;19996;-80
2021/12/17 07:50:19;;;;;;;;;;;;;;;;;;4860607;29;19908;-79
2021/12/17 07:52:45;;;;;;;;;;;;;;;;;;4862035;29;19908;-79
2021/12/17 07:55:11;;;;;;;;;;;;;;;;;;4862075;29;19931;-79
2021/12/17 07:57:36;;;;;;;;;;;;;;;;;;4861556;29;19927;-80
2021/12/17 08:00:02;;;;;;;;;;;;;;;;;;4860455;29;20406;-80
2021/12/17 08:02:28;;;;;;;;;;;;;;;;;;4860626;29;19908;-79
2021/12/17 08:04:54;;;;;;;;;;;;;;;;;;4861841;29;19908;-79
2021/12/17 08:07:20;;;;;;;;;;;;;;;;;;4862074;29;19908;-80
2021/12/17 08:09:46;;;;;;;;;;;;;;;;;;4860316;29;20006;-79
2021/12/17 08:12:12;;;;;;;;;;;;;;;;;;4861660;29;19908;-79
2021/12/17 08:14:38;;;;;;;;;;;;;;;;;;4861479;29;20387;-79
2021/12/17 08:28:02;;;;;;;;;;;;;;;;;;4861574;29;20347;-79
2021/12/17 08:30:37;;;;;;;;;;;;;;;;;;4861790;29;20001;-79
2021/12/17 08:33:05;;;;;;;;;;;;;;;;;;4861540;29;19966;-79
2021/12/17 08:35:31;;;;;;;;;;;;;;;;;;4861216;29;19912;-79
2021/12/17 08:37:57;;;;;;;;;;;;;;;;;;4860931;29;20053;-79
2021/12/17 08:40:26;;;;;;;;;;;;;;;;;;4861241;29;20365;-79
2021/12/17 08:42:52;;;;;;;;;;;;;;;;;;4861212;29;19951;-79
2021/12/17 08:45:18;;;;;;;;;;;;;;;;;;4861073;29;19980;-79
2021/12/17 08:47:44;;;;;;;;;;;;;;;;;;4860690;29;19943;-79
2021/12/17 08:50:11;;;;;;;;;;;;;;;;;;4861447;29;19965;-80
2021/12/17 08:52:37;;;;;;;;;;;;;;;;;;4860366;29;19912;-79
2021/12/17 08:55:03;;;;;;;;;;;;;;;;;;4861144;29;19908;-79
2021/12/17 08:57:29;;;;;;;;;;;;;;;;;;4860291;29;19920;-79
2021/12/17 08:59:57;;;;;;;;;;;;;;;;;;4860972;29;19908;-79
2021/12/17 09:02:23;;;;;;;;;;;;;;;;;;4861315;29;20407;-79
2021/12/17 09:04:49;;;;;;;;;;;;;;;;;;4860707;29;19947;-79
2021/12/17 09:07:15;;;;;;;;;;;;;;;;;;4859157;29;19910;-79
2021/12/17 09:09:42;;;;;;;;;;;;;;;;;;4860781;29;19949;-79
2021/12/17 09:12:08;;;;;;;;;;;;;;;;;;4860653;29;19950;-79
2021/12/17 09:14:35;;;;;;;;;;;;;;;;;;4860147;29;19947;-80
2021/12/17 09:17:01;;;;;;;;;;;;;;;;;;4860937;29;19912;-79
2021/12/17 09:19:27;;;;;;;;;;;;;;;;;;4860652;29;19919;-79
2021/12/17 09:21:53;;;;;;;;;;;;;;;;;;4860392;29;19908;-79
2021/12/17 09:24:19;;;;;;;;;;;;;;;;;;4860559;29;20320;-80
2021/12/17 09:26:45;;;;;;;;;;;;;;;;;;4860739;29;20391;-79
2021/12/17 09:29:11;;;;;;;;;;;;;;;;;;4860784;29;19987;-79
2021/12/17 09:31:36;;;;;;;;;;;;;;;;;;4860265;29;19912;-79
2021/12/17 09:34:02;;;;;;;;;;;;;;;;;;4859468;29;19916;-79
2021/12/17 09:36:28;;;;;;;;;;;;;;;;;;4860044;29;20333;-79
2021/12/17 09:38:54;;;;;;;;;;;;;;;;;;4860331;29;19930;-79
2021/12/17 09:41:20;;;;;;;;;;;;;;;;;;4860070;29;19905;-79
2021/12/17 09:43:46;;;;;;;;;;;;;;;;;;4860203;29;19964;-79
2021/12/17 09:46:12;;;;;;;;;;;;;;;;;;4860569;29;20321;-79
2021/12/17 09:48:38;;;;;;;;;;;;;;;;;;4860129;29;19936;-79
2021/12/17 09:51:04;;;;;;;;;;;;;;;;;;4859926;29;19919;-79
2021/12/17 09:53:30;;;;;;;;;;;;;;;;;;4860390;29;20395;-79
2021/12/17 09:55:56;;;;;;;;;;;;;;;;;;4859851;29;19908;-79
2021/12/17 09:58:23;;;;;;;;;;;;;;;;;;4860246;29;20340;-79
2021/12/17 10:00:48;;;;;;;;;;;;;;;;;;4861747;29;19912;-79
2021/12/17 10:03:14;;;;;;;;;;;;;;;;;;4863903;29;19960;-80
2021/12/17 10:05:40;;;;;;;;;;;;;;;;;;4863307;29;19908;-79
2021/12/17 10:08:06;;;;;;;;;;;;;;;;;;4864206;29;19912;-79
2021/12/17 10:10:32;;;;;;;;;;;;;;;;;;4863315;29;19912;-78
2021/12/17 10:12:58;;;;;;;;;;;;;;;;;;4864263;29;19915;-79
2021/12/17 10:15:24;;;;;;;;;;;;;;;;;;4863722;29;20257;-79
2021/12/17 10:17:50;;;;;;;;;;;;;;;;;;4863572;29;19959;-79
2021/12/17 10:20:16;;;;;;;;;;;;;;;;;;4863436;29;20007;-79
2021/12/17 10:22:42;;;;;;;;;;;;;;;;;;4863752;29;20361;-79
2021/12/17 10:25:08;;;;;;;;;;;;;;;;;;4863262;29;20231;-79
2021/12/17 10:27:33;;;;;;;;;;;;;;;;;;4863887;29;19971;-79
2021/12/17 10:29:59;;;;;;;;;;;;;;;;;;4863596;29;19956;-79
2021/12/17 10:32:25;;;;;;;;;;;;;;;;;;4863930;29;19908;-79
2021/12/17 10:34:51;;;;;;;;;;;;;;;;;;4863519;29;19964;-79
2021/12/17 10:37:17;;;;;;;;;;;;;;;;;;4863301;29;20364;-79
2021/12/17 10:39:43;;;;;;;;;;;;;;;;;;4863093;29;19908;-79
2021/12/17 10:42:09;;;;;;;;;;;;;;;;;;4863369;29;19919;-79
2021/12/17 10:44:35;;;;;;;;;;;;;;;;;;4863384;29;19908;-79
2021/12/17 10:47:32;;;;;;;;;;;;;;;;;;4863433;29;19952;-79
2021/12/17 10:49:50;;;;;;;;;;;;;;;;;;4862550;29;20269;-78
2021/12/17 10:52:18;;;;;;;;;;;;;;;;;;4862842;29;19986;-80
2021/12/17 10:54:44;;;;;;;;;;;;;;;;;;4862798;29;20300;-78
2021/12/17 10:57:10;;;;;;;;;;;;;;;;;;4863300;29;19920;-79
2021/12/17 10:59:36;;;;;;;;;;;;;;;;;;4862910;29;19911;-79
2021/12/17 11:02:06;;;;;;;;;;;;;;;;;;4863352;29;19915;-79
2021/12/17 11:04:31;;;;;;;;;;;;;;;;;;4862876;29;20364;-79
2021/12/17 11:06:57;;;;;;;;;;;;;;;;;;4861455;29;19964;-79
2021/12/17 11:09:23;;;;;;;;;;;;;;;;;;4862727;29;19904;-79
2021/12/17 11:11:50;;;;;;;;;;;;;;;;;;4862216;29;19934;-79
2021/12/17 11:14:16;;;;;;;;;;;;;;;;;;4862870;29;20007;-79
2021/12/17 11:16:42;;;;;;;;;;;;;;;;;;4862652;29;20437;-79
2021/12/17 11:19:08;;;;;;;;;;;;;;;;;;4862386;29;19908;-79
2021/12/17 11:21:34;;;;;;;;;;;;;;;;;;4862853;29;19977;-79
2021/12/17 11:24:00;;;;;;;;;;;;;;;;;;4862622;29;20363;-79
2021/12/17 11:26:26;;;;;;;;;;;;;;;;;;4863137;29;20003;-82
2021/12/17 11:28:52;;;;;;;;;;;;;;;;;;4861344;29;20038;-81
2021/12/17 11:31:18;;;;;;;;;;;;;;;;;;4862863;29;19915;-81
2021/12/17 11:33:45;;;;;;;;;;;;;;;;;;4862466;29;19973;-81
2021/12/17 11:36:11;;;;;;;;;;;;;;;;;;4861405;29;20376;-82
2021/12/17 11:38:37;;;;;;;;;;;;;;;;;;4862300;29;19986;-83
2021/12/17 11:41:03;;;;;;;;;;;;;;;;;;4862388;29;19908;-82
2021/12/17 11:43:33;;;;;;;;;;;;;;;;;;4862620;29;19908;-82
2021/12/17 11:45:59;;;;;;;;;;;;;;;;;;4862045;29;20008;-82
2021/12/17 11:48:25;;;;;;;;;;;;;;;;;;4861344;29;19908;-82
2021/12/17 11:50:51;;;;;;;;;;;;;;;;;;4861117;29;19912;-82
2021/12/17 11:53:18;;;;;;;;;;;;;;;;;;4862367;29;19940;-82
2021/12/17 11:55:44;;;;;;;;;;;;;;;;;;4861746;29;19909;-82
2021/12/17 11:58:14;;;;;;;;;;;;;;;;;;4861643;29;19927;-82
2021/12/17 12:00:39;;;;;;;;;;;;;;;;;;4856996;29;19912;-83
2021/12/17 12:03:05;;;;;;;;;;;;;;;;;;4861845;29;20290;-82
2021/12/17 12:05:31;;;;;;;;;;;;;;;;;;4856399;29;19912;-82
2021/12/17 12:07:57;;;;;;;;;;;;;;;;;;4843332;29;19938;-82
2021/12/17 12:10:23;;;;;;;;;;;;;;;;;;4846712;29;19912;-82
2021/12/17 12:12:50;;;;;;;;;;;;;;;;;;4861133;29;19912;-82
2021/12/17 12:15:16;;;;;;;;;;;;;;;;;;4861906;29;20122;-82
2021/12/17 12:17:42;;;;;;;;;;;;;;;;;;4861561;29;19920;-82
2021/12/17 12:20:08;;;;;;;;;;;;;;;;;;4862148;29;19912;-82
2021/12/17 12:22:34;;;;;;;;;;;;;;;;;;4861246;29;20017;-82
2021/12/17 12:25:00;;;;;;;;;;;;;;;;;;4861549;29;19904;-82
2021/12/17 12:27:26;;;;;;;;;;;;;;;;;;4861343;29;19915;-82
2021/12/17 12:29:52;;;;;;;;;;;;;;;;;;4859297;29;19908;-82
2021/12/17 12:32:20;;;;;;;;;;;;;;;;;;4859457;29;20005;-82
2021/12/17 12:34:46;;;;;;;;;;;;;;;;;;4860399;29;20000;-80
2021/12/17 12:37:12;;;;;;;;;;;;;;;;;;4860844;29;20011;-82
2021/12/17 12:39:38;;;;;;;;;;;;;;;;;;4859758;29;19926;-82
2021/12/17 12:42:04;;;;;;;;;;;;;;;;;;4859869;29;19995;-82
2021/12/17 12:44:30;;;;;;;;;;;;;;;;;;4860281;29;20011;-82
2021/12/17 12:46:56;;;;;;;;;;;;;;;;;;4861065;29;20289;-81
2021/12/17 12:49:22;;;;;;;;;;;;;;;;;;4859509;29;20403;-82
2021/12/17 12:51:48;;;;;;;;;;;;;;;;;;4860825;29;20006;-81
2021/12/17 12:54:16;;;;;;;;;;;;;;;;;;4861250;29;19908;-81
2021/12/17 12:56:42;;;;;;;;;;;;;;;;;;4860734;29;19919;-84
2021/12/17 12:59:08;;;;;;;;;;;;;;;;;;4860154;29;19923;-78
2021/12/17 13:01:34;;;;;;;;;;;;;;;;;;4859183;29;20343;-81
2021/12/17 13:03:59;;;;;;;;;;;;;;;;;;4860512;29;19908;-81
2021/12/17 13:06:25;;;;;;;;;;;;;;;;;;4860939;29;19909;-80
2021/12/17 13:08:52;;;;;;;;;;;;;;;;;;4860976;29;19912;-80
2021/12/17 13:11:19;;;;;;;;;;;;;;;;;;4860676;29;20377;-80
2021/12/17 13:13:58;;;;;;;;;;;;;;;;;;4860042;29;19915;-80
2021/12/17 13:16:36;;;;;;;;;;;;;;;;;;4860506;29;19912;-80
2021/12/17 13:21:59;;;;;;;;;;;;;;;;;;4860572;29;20001;-80
2021/12/17 13:24:25;;;;;;;;;;;;;;;;;;4860866;29;20377;-80
2021/12/17 13:26:51;;;;;;;;;;;;;;;;;;4861000;29;19915;-80
2021/12/17 13:29:18;;;;;;;;;;;;;;;;;;4860108;29;19908;-80
2021/12/17 13:31:44;;;;;;;;;;;;;;;;;;4859490;29;19908;-81
2021/12/17 13:34:10;;;;;;;;;;;;;;;;;;4860094;29;19912;-80
2021/12/17 13:36:36;;;;;;;;;;;;;;;;;;4860321;29;19916;-80
2021/12/17 13:39:02;;;;;;;;;;;;;;;;;;4860211;29;19912;-79
2021/12/17 13:41:28;;;;;;;;;;;;;;;;;;4860547;29;19919;-80
2021/12/17 13:43:55;;;;;;;;;;;;;;;;;;4859902;29;19908;-80
2021/12/17 13:46:20;;;;;;;;;;;;;;;;;;4860246;29;20396;-80
2021/12/17 13:48:46;;;;;;;;;;;;;;;;;;4860603;29;19913;-80
2021/12/17 13:51:12;;;;;;;;;;;;;;;;;;4859640;29;19956;-80
2021/12/17 13:53:38;;;;;;;;;;;;;;;;;;4860348;29;20361;-80
2021/12/17 13:56:04;;;;;;;;;;;;;;;;;;4859957;29;19958;-80
2021/12/17 13:58:32;;;;;;;;;;;;;;;;;;4859957;29;19912;-80
2021/12/17 14:00:58;;;;;;;;;;;;;;;;;;4860071;29;20457;-79
2021/12/17 14:03:27;;;;;;;;;;;;;;;;;;4860250;29;19908;-80
2021/12/17 14:06:08;;;;;;;;;;;;;;;;;;4860292;29;19908;-80
2021/12/17 14:08:33;;;;;;;;;;;;;;;;;;4860234;29;20338;-80
2021/12/17 14:10:59;;;;;;;;;;;;;;;;;;4860438;29;19908;-80
2021/12/17 14:13:25;;;;;;;;;;;;;;;;;;4859371;29;19919;-80
2021/12/17 14:15:51;;;;;;;;;;;;;;;;;;4859976;29;19908;-80
2021/12/17 14:18:17;;;;;;;;;;;;;;;;;;4860256;29;19957;-80
2021/12/17 14:20:43;;;;;;;;;;;;;;;;;;4859986;29;19908;-80
2021/12/17 14:23:09;;;;;;;;;;;;;;;;;;4859905;29;19987;-80
2021/12/17 14:25:35;;;;;;;;;;;;;;;;;;4859946;29;19987;-80
2021/12/17 14:28:01;;;;;;;;;;;;;;;;;;4859634;29;20276;-80
2021/12/17 14:30:28;;;;;;;;;;;;;;;;;;4859846;29;19916;-80
2021/12/17 14:32:54;;;;;;;;;;;;;;;;;;4860263;29;19998;-79
2021/12/17 14:35:20;;;;;;;;;;;;;;;;;;4859777;29;20003;-79
2021/12/17 14:37:46;;;;;;;;;;;;;;;;;;4859849;29;19912;-78
2021/12/17 14:40:12;;;;;;;;;;;;;;;;;;4859724;29;19916;-78
2021/12/17 14:42:40;;;;;;;;;;;;;;;;;;4859831;29;20284;-79
2021/12/17 14:45:08;;;;;;;;;;;;;;;;;;4859608;29;19965;-79
2021/12/17 14:47:49;;;;;;;;;;;;;;;;;;4862628;29;20007;-79
2021/12/17 15:03:41;;;;;;;;;;;;;;;;;;4863238;29;19912;-79
2021/12/17 15:06:07;;;;;;;;;;;;;;;;;;4862952;29;19912;-79
2021/12/17 15:08:32;;;;;;;;;;;;;;;;;;4863405;29;19915;-79
2021/12/17 15:10:59;;;;;;;;;;;;;;;;;;4862725;29;19908;-80
2021/12/17 15:13:24;;;;;;;;;;;;;;;;;;4862928;29;20292;-81
2021/12/17 15:15:52;;;;;;;;;;;;;;;;;;4861604;29;20002;-80
2021/12/17 15:18:19;;;;;;;;;;;;;;;;;;4862449;29;19912;-81
2021/12/17 15:20:45;;;;;;;;;;;;;;;;;;4862739;29;19912;-80
2021/12/17 15:23:11;;;;;;;;;;;;;;;;;;4862485;29;19909;-80
2021/12/17 15:25:39;;;;;;;;;;;;;;;;;;4862478;29;19959;-79
2021/12/17 15:28:05;;;;;;;;;;;;;;;;;;4861254;29;19912;-80
2021/12/17 15:30:30;;;;;;;;;;;;;;;;;;4862542;29;19908;-80
2021/12/17 15:32:58;;;;;;;;;;;;;;;;;;4862580;29;19908;-80
2021/12/17 15:35:24;;;;;;;;;;;;;;;;;;4861076;29;20258;-80
2021/12/17 15:37:50;;;;;;;;;;;;;;;;;;4861143;29;19912;-80
2021/12/17 15:40:16;;;;;;;;;;;;;;;;;;4861919;29;19908;-80
2021/12/17 15:42:41;;;;;;;;;;;;;;;;;;4862220;29;19904;-80
2021/12/17 15:45:07;;;;;;;;;;;;;;;;;;4860938;29;20361;-80
2021/12/17 15:47:33;;;;;;;;;;;;;;;;;;4862408;29;20333;-80
2021/12/17 15:49:59;;;;;;;;;;;;;;;;;;4862403;29;19908;-80
2021/12/17 15:52:25;;;;;;;;;;;;;;;;;;4861802;29;19911;-80
2021/12/17 15:54:51;;;;;;;;;;;;;;;;;;4861742;29;19918;-80
2021/12/17 15:57:17;;;;;;;;;;;;;;;;;;4861298;29;19928;-80
2021/12/17 15:59:43;;;;;;;;;;;;;;;;;;4862274;29;19980;-80
2021/12/17 16:02:09;;;;;;;;;;;;;;;;;;4860506;29;19912;-79
2021/12/17 16:04:39;;;;;;;;;;;;;;;;;;4862063;29;19914;-81
2021/12/17 16:07:05;;;;;;;;;;;;;;;;;;4860811;29;20293;-81
2021/12/17 16:10:13;;;;;;;;;;;;;;;;;;4861535;29;19908;-81
2021/12/17 16:22:48;;;;;;;;;;;;;;;;;;4859406;29;19973;-79
2021/12/17 16:25:14;;;;;;;;;;;;;;;;;;4860139;29;20369;-81
2021/12/17 16:27:39;;;;;;;;;;;;;;;;;;4860223;29;19908;-80
2021/12/17 16:30:05;;;;;;;;;;;;;;;;;;4860625;29;19915;-80
2021/12/17 16:32:31;;;;;;;;;;;;;;;;;;4854236;29;19912;-80
2021/12/17 16:34:57;;;;;;;;;;;;;;;;;;4859764;29;20006;-81
2021/12/17 16:37:23;;;;;;;;;;;;;;;;;;4858195;29;19912;-81
2021/12/17 16:39:49;;;;;;;;;;;;;;;;;;4859277;29;19908;-81
2021/12/17 16:42:17;;;;;;;;;;;;;;;;;;4859412;29;19915;-81
2021/12/17 16:45:13;;;;;;;;;;;;;;;;;;4858594;29;19965;-80
2021/12/17 16:47:29;;;;;;;;;;;;;;;;;;4858845;29;19908;-83
2021/12/17 16:49:54;;;;;;;;;;;;;;;;;;4858994;29;19931;-82
2021/12/17 16:52:20;;;;;;;;;;;;;;;;;;4875034;29;19908;-81
2021/12/17 16:54:46;;;;;;;;;;;;;;;;;;4877319;29;19911;-86
2021/12/17 16:57:12;;;;;;;;;;;;;;;;;;4861122;29;20425;-86
2021/12/17 16:59:38;;;;;;;;;;;;;;;;;;4861615;29;19908;-82
2021/12/17 17:02:04;;;;;;;;;;;;;;;;;;4861918;29;19912;-85
2021/12/17 17:04:30;;;;;;;;;;;;;;;;;;4861851;29;19915;-82
2021/12/17 17:06:56;;;;;;;;;;;;;;;;;;4860291;29;20003;-84
2021/12/17 17:09:22;;;;;;;;;;;;;;;;;;4860849;29;19930;-81
2021/12/17 17:11:49;;;;;;;;;;;;;;;;;;4860582;29;19912;-82
2021/12/17 17:14:17;;;;;;;;;;;;;;;;;;4861039;29;19908;-80
2021/12/17 17:16:43;;;;;;;;;;;;;;;;;;4861168;29;19916;-81
2021/12/17 17:19:08;;;;;;;;;;;;;;;;;;4861196;29;20035;-80
2021/12/17 17:21:34;;;;;;;;;;;;;;;;;;4874412;29;19908;-87
2021/12/17 17:24:02;;;;;;;;;;;;;;;;;;4861366;29;20382;-81
2021/12/17 17:26:28;;;;;;;;;;;;;;;;;;4860616;29;19919;-81
2021/12/17 17:28:54;;;;;;;;;;;;;;;;;;4861529;29;19994;-82
2021/12/17 17:31:20;;;;;;;;;;;;;;;;;;4860905;29;20002;-89
2021/12/17 17:33:48;;;;;;;;;;;;;;;;;;4861179;29;20280;-84
2021/12/17 17:36:14;;;;;;;;;;;;;;;;;;4860214;29;19915;-81
2021/12/17 17:38:40;;;;;;;;;;;;;;;;;;4860751;29;20288;-80
2021/12/17 17:41:05;;;;;;;;;;;;;;;;;;4860943;29;19916;-80
2021/12/17 17:43:31;;;;;;;;;;;;;;;;;;4859749;29;19908;-81
2021/12/17 17:45:57;;;;;;;;;;;;;;;;;;4861181;29;19908;-80
2021/12/17 17:48:23;;;;;;;;;;;;;;;;;;4860777;29;19908;-80
2021/12/17 17:50:50;;;;;;;;;;;;;;;;;;4864406;29;19914;-81
2021/12/17 17:53:15;;;;;;;;;;;;;;;;;;4878860;29;19908;-82
2021/12/17 17:55:42;;;;;;;;;;;;;;;;;;4860260;29;20416;-81
2021/12/17 17:58:08;;;;;;;;;;;;;;;;;;4860174;29;19920;-81
2021/12/17 18:00:34;;;;;;;;;;;;;;;;;;4859876;29;19930;-81
2021/12/17 18:02:59;;;;;;;;;;;;;;;;;;4860833;29;19908;-82
2021/12/17 18:05:26;;;;;;;;;;;;;;;;;;4860790;29;20006;-84
2021/12/17 18:07:52;;;;;;;;;;;;;;;;;;4860299;29;19994;-83
2021/12/17 18:10:18;;;;;;;;;;;;;;;;;;4860635;29;19915;-81
2021/12/17 18:12:44;;;;;;;;;;;;;;;;;;4860282;29;19908;-81
2021/12/17 18:15:10;;;;;;;;;;;;;;;;;;4860529;29;19908;-80
2021/12/17 18:17:35;;;;;;;;;;;;;;;;;;4860360;29;19968;-80
2021/12/17 18:20:01;;;;;;;;;;;;;;;;;;4858927;29;19908;-80
2021/12/17 18:22:27;;;;;;;;;;;;;;;;;;4862991;29;20296;-81
2021/12/17 18:24:53;;;;;;;;;;;;;;;;;;4863913;29;20301;-80
2021/12/17 18:27:19;;;;;;;;;;;;;;;;;;4863909;29;19943;-79
2021/12/17 18:29:45;;;;;;;;;;;;;;;;;;4863740;29;19915;-80
2021/12/17 18:32:11;;;;;;;;;;;;;;;;;;4878296;29;20665;-79
2021/12/17 18:34:37;;;;;;;;;;;;;;;;;;4875719;29;19923;-79
2021/12/17 18:37:03;;;;;;;;;;;;;;;;;;4861215;29;19923;-79
2021/12/17 18:39:29;;;;;;;;;;;;;;;;;;4874497;29;20369;-79
2021/12/17 18:44:39;;;;;;;;;;;;;;;;;;4863156;29;19919;-80
2021/12/17 18:47:06;;;;;;;;;;;;;;;;;;4863329;29;20289;-79
2021/12/17 18:49:32;;;;;;;;;;;;;;;;;;4861587;29;19912;-80
2021/12/17 18:52:14;;;;;;;;;;;;;;;;;;4864651;29;19985;-83
2021/12/17 18:54:40;;;;;;;;;;;;;;;;;;4863493;29;19908;-80
2021/12/17 18:57:06;;;;;;;;;;;;;;;;;;4862247;29;19931;-80
2021/12/17 18:59:32;;;;;;;;;;;;;;;;;;4863151;29;19908;-80
2021/12/17 19:01:58;;;;;;;;;;;;;;;;;;4861981;29;20338;-78
2021/12/17 19:04:24;;;;;;;;;;;;;;;;;;4863406;29;20007;-79
2021/12/17 19:06:51;;;;;;;;;;;;;;;;;;4862910;29;19908;-79
2021/12/17 19:09:17;;;;;;;;;;;;;;;;;;4877013;29;19908;-80
2021/12/17 19:11:45;;;;;;;;;;;;;;;;;;4863210;29;19989;-83
2021/12/17 19:14:11;;;;;;;;;;;;;;;;;;4863168;29;20399;-81
2021/12/17 19:16:42;;;;;;;;;;;;;;;;;;4862515;29;19916;-81
2021/12/17 19:19:12;;;;;;;;;;;;;;;;;;4863193;29;20284;-80
2021/12/17 19:21:54;;;;;;;;;;;;;;;;;;4863025;29;19908;-80
2021/12/17 19:24:20;;;;;;;;;;;;;;;;;;4862529;29;20392;-81
2021/12/17 19:26:46;;;;;;;;;;;;;;;;;;4862212;29;19912;-81
2021/12/17 19:29:12;;;;;;;;;;;;;;;;;;4862659;29;19908;-81
2021/12/17 19:31:38;;;;;;;;;;;;;;;;;;4862348;29;20335;-82
2021/12/17 19:34:04;;;;;;;;;;;;;;;;;;4851837;29;20392;-81
2021/12/17 19:36:32;;;;;;;;;;;;;;;;;;4852709;29;19920;-81
2021/12/17 19:38:58;;;;;;;;;;;;;;;;;;4853570;29;19912;-81
2021/12/17 19:41:24;;;;;;;;;;;;;;;;;;4865472;29;20296;-81
2021/12/17 19:43:50;;;;;;;;;;;;;;;;;;4851981;29;19915;-81
2021/12/17 19:46:22;;;;;;;;;;;;;;;;;;4853367;29;20006;-80
2021/12/17 19:51:33;;;;;;;;;;;;;;;;;;4855312;29;19920;-81
2021/12/17 19:53:59;;;;;;;;;;;;;;;;;;4853152;29;19908;-81
2021/12/17 19:56:24;;;;;;;;;;;;;;;;;;4856435;29;19919;-80
2021/12/17 19:58:51;;;;;;;;;;;;;;;;;;4861434;29;19912;-82
2021/12/17 20:01:17;;;;;;;;;;;;;;;;;;4860158;29;19914;-81
2021/12/17 20:03:50;;;;;;;;;;;;;;;;;;4860125;29;20351;-81
2021/12/17 20:06:16;;;;;;;;;;;;;;;;;;4858586;29;19908;-82
2021/12/17 20:08:45;;;;;;;;;;;;;;;;;;4861831;29;20345;-81